sensor_id;sensor_type;location;lat;lon;timestamp;P1;durP1;ratioP1;P2;durP2;ratioP2
31746;SDS011;18319;48.974;8.462;2023-08-20T00:01:38;7.95;;;7.10;;
31746;SDS011;18319;48.974;8.462;2023-08-20T00:04:06;7.88;;;7.13;;
31746;SDS011;18319;48.974;8.462;2023-08-20T00:06:34;9.25;;;8.25;;
31746;SDS011;18319;48.974;8.462;2023-08-20T00:09:01;8.07;;;7.40;;
31746;SDS011;18319;48.974;8.462;2023-08-20T00:11:28;8.77;;;7.78;;
31746;SDS011;18319;48.974;8.462;2023-08-20T00:13:57;11.32;;;8.18;;
31746;SDS011;18319;48.974;8.462;2023-08-20T00:16:24;8.00;;;7.35;;
31746;SDS011;18319;48.974;8.462;2023-08-20T00:18:51;8.20;;;7.50;;
31746;SDS011;18319;48.974;8.462;2023-08-20T00:21:19;7.78;;;7.28;;
31746;SDS011;18319;48.974;8.462;2023-08-20T00:23:46;8.48;;;7.80;;
31746;SDS011;18319;48.974;8.462;2023-08-20T00:26:13;9.00;;;8.13;;
31746;SDS011;18319;48.974;8.462;2023-08-20T00:28:40;8.65;;;7.63;;
31746;SDS011;18319;48.974;8.462;2023-08-20T00:31:08;8.77;;;7.90;;
31746;SDS011;18319;48.974;8.462;2023-08-20T00:33:35;8.93;;;7.72;;
31746;SDS011;18319;48.974;8.462;2023-08-20T00:36:02;9.02;;;8.10;;
31746;SDS011;18319;48.974;8.462;2023-08-20T00:38:29;9.00;;;8.18;;
31746;SDS011;18319;48.974;8.462;2023-08-20T00:40:55;8.95;;;8.00;;
31746;SDS011;18319;48.974;8.462;2023-08-20T00:43:22;9.10;;;8.32;;
31746;SDS011;18319;48.974;8.462;2023-08-20T00:45:49;8.55;;;7.68;;
31746;SDS011;18319;48.974;8.462;2023-08-20T00:48:17;9.02;;;7.95;;
31746;SDS011;18319;48.974;8.462;2023-08-20T00:50:44;8.25;;;7.65;;
31746;SDS011;18319;48.974;8.462;2023-08-20T00:53:11;8.70;;;7.90;;
31746;SDS011;18319;48.974;8.462;2023-08-20T00:55:40;8.95;;;8.15;;
31746;SDS011;18319;48.974;8.462;2023-08-20T00:58:08;8.45;;;7.85;;
31746;SDS011;18319;48.974;8.462;2023-08-20T01:00:35;9.57;;;8.70;;
31746;SDS011;18319;48.974;8.462;2023-08-20T01:03:02;8.95;;;8.10;;
31746;SDS011;18319;48.974;8.462;2023-08-20T01:05:31;8.98;;;8.25;;
31746;SDS011;18319;48.974;8.462;2023-08-20T01:08:06;8.75;;;8.05;;
31746;SDS011;18319;48.974;8.462;2023-08-20T01:10:47;9.05;;;8.23;;
31746;SDS011;18319;48.974;8.462;2023-08-20T01:13:22;8.48;;;7.68;;
31746;SDS011;18319;48.974;8.462;2023-08-20T01:15:49;12.23;;;8.55;;
31746;SDS011;18319;48.974;8.462;2023-08-20T01:18:16;9.23;;;8.20;;
31746;SDS011;18319;48.974;8.462;2023-08-20T01:20:45;9.48;;;8.70;;
31746;SDS011;18319;48.974;8.462;2023-08-20T01:23:33;9.75;;;8.35;;
31746;SDS011;18319;48.974;8.462;2023-08-20T01:26:20;8.70;;;7.95;;
31746;SDS011;18319;48.974;8.462;2023-08-20T01:28:58;9.00;;;8.13;;
31746;SDS011;18319;48.974;8.462;2023-08-20T01:31:26;8.48;;;7.78;;
31746;SDS011;18319;48.974;8.462;2023-08-20T01:33:53;8.00;;;7.38;;
31746;SDS011;18319;48.974;8.462;2023-08-20T01:36:20;8.35;;;7.60;;
31746;SDS011;18319;48.974;8.462;2023-08-20T01:38:48;9.13;;;7.20;;
31746;SDS011;18319;48.974;8.462;2023-08-20T01:41:16;10.00;;;7.90;;
31746;SDS011;18319;48.974;8.462;2023-08-20T01:43:43;8.52;;;7.82;;
31746;SDS011;18319;48.974;8.462;2023-08-20T01:46:11;10.30;;;8.70;;
31746;SDS011;18319;48.974;8.462;2023-08-20T01:48:38;9.15;;;8.43;;
31746;SDS011;18319;48.974;8.462;2023-08-20T01:51:04;9.30;;;7.78;;
31746;SDS011;18319;48.974;8.462;2023-08-20T01:53:31;7.97;;;7.38;;
31746;SDS011;18319;48.974;8.462;2023-08-20T01:55:58;8.82;;;8.02;;
31746;SDS011;18319;48.974;8.462;2023-08-20T01:58:25;8.68;;;7.97;;
31746;SDS011;18319;48.974;8.462;2023-08-20T02:00:51;8.98;;;8.15;;
31746;SDS011;18319;48.974;8.462;2023-08-20T02:03:20;8.52;;;7.63;;
31746;SDS011;18319;48.974;8.462;2023-08-20T02:05:46;7.68;;;6.82;;
31746;SDS011;18319;48.974;8.462;2023-08-20T02:08:13;7.82;;;7.22;;
31746;SDS011;18319;48.974;8.462;2023-08-20T02:10:40;9.02;;;7.75;;
31746;SDS011;18319;48.974;8.462;2023-08-20T02:13:09;7.53;;;6.82;;
31746;SDS011;18319;48.974;8.462;2023-08-20T02:15:36;8.55;;;7.60;;
31746;SDS011;18319;48.974;8.462;2023-08-20T02:18:03;7.22;;;6.60;;
31746;SDS011;18319;48.974;8.462;2023-08-20T02:20:31;7.65;;;6.95;;
31746;SDS011;18319;48.974;8.462;2023-08-20T02:22:58;7.78;;;7.10;;
31746;SDS011;18319;48.974;8.462;2023-08-20T02:25:25;8.10;;;7.40;;
31746;SDS011;18319;48.974;8.462;2023-08-20T02:27:51;6.65;;;6.25;;
31746;SDS011;18319;48.974;8.462;2023-08-20T02:30:18;8.23;;;7.40;;
31746;SDS011;18319;48.974;8.462;2023-08-20T02:32:46;7.60;;;6.95;;
31746;SDS011;18319;48.974;8.462;2023-08-20T02:35:12;7.47;;;6.88;;
31746;SDS011;18319;48.974;8.462;2023-08-20T02:37:42;8.30;;;6.32;;
31746;SDS011;18319;48.974;8.462;2023-08-20T02:40:09;8.65;;;7.57;;
31746;SDS011;18319;48.974;8.462;2023-08-20T02:42:38;9.00;;;7.90;;
31746;SDS011;18319;48.974;8.462;2023-08-20T02:45:05;8.10;;;7.05;;
31746;SDS011;18319;48.974;8.462;2023-08-20T02:47:33;7.65;;;7.10;;
31746;SDS011;18319;48.974;8.462;2023-08-20T02:50:00;8.52;;;7.85;;
31746;SDS011;18319;48.974;8.462;2023-08-20T02:52:26;9.40;;;8.25;;
31746;SDS011;18319;48.974;8.462;2023-08-20T02:54:54;8.32;;;7.63;;
31746;SDS011;18319;48.974;8.462;2023-08-20T02:57:20;7.38;;;6.82;;
31746;SDS011;18319;48.974;8.462;2023-08-20T02:59:47;8.35;;;7.65;;
31746;SDS011;18319;48.974;8.462;2023-08-20T03:02:14;8.57;;;7.75;;
31746;SDS011;18319;48.974;8.462;2023-08-20T03:04:41;9.07;;;7.40;;
31746;SDS011;18319;48.974;8.462;2023-08-20T03:07:07;8.82;;;6.97;;
31746;SDS011;18319;48.974;8.462;2023-08-20T03:09:34;9.13;;;7.72;;
31746;SDS011;18319;48.974;8.462;2023-08-20T03:12:02;7.55;;;7.05;;
31746;SDS011;18319;48.974;8.462;2023-08-20T03:14:29;8.50;;;7.60;;
31746;SDS011;18319;48.974;8.462;2023-08-20T03:16:56;8.60;;;7.60;;
31746;SDS011;18319;48.974;8.462;2023-08-20T03:19:23;9.30;;;8.35;;
31746;SDS011;18319;48.974;8.462;2023-08-20T03:21:50;7.78;;;6.95;;
31746;SDS011;18319;48.974;8.462;2023-08-20T03:24:16;11.82;;;7.40;;
31746;SDS011;18319;48.974;8.462;2023-08-20T03:26:43;7.88;;;7.32;;
31746;SDS011;18319;48.974;8.462;2023-08-20T03:29:12;8.80;;;7.97;;
31746;SDS011;18319;48.974;8.462;2023-08-20T03:31:39;7.88;;;7.13;;
31746;SDS011;18319;48.974;8.462;2023-08-20T03:34:06;8.55;;;7.75;;
31746;SDS011;18319;48.974;8.462;2023-08-20T03:36:34;8.05;;;7.32;;
31746;SDS011;18319;48.974;8.462;2023-08-20T03:39:01;9.40;;;8.27;;
31746;SDS011;18319;48.974;8.462;2023-08-20T03:41:28;8.52;;;7.53;;
31746;SDS011;18319;48.974;8.462;2023-08-20T03:43:55;9.13;;;7.53;;
31746;SDS011;18319;48.974;8.462;2023-08-20T03:46:23;9.80;;;7.82;;
31746;SDS011;18319;48.974;8.462;2023-08-20T03:48:50;7.78;;;7.18;;
31746;SDS011;18319;48.974;8.462;2023-08-20T03:51:16;10.18;;;7.88;;
31746;SDS011;18319;48.974;8.462;2023-08-20T03:53:43;9.35;;;7.65;;
31746;SDS011;18319;48.974;8.462;2023-08-20T03:56:10;8.63;;;7.90;;
31746;SDS011;18319;48.974;8.462;2023-08-20T03:58:37;8.05;;;7.18;;
31746;SDS011;18319;48.974;8.462;2023-08-20T04:01:04;7.93;;;6.97;;
31746;SDS011;18319;48.974;8.462;2023-08-20T04:03:32;8.73;;;7.97;;
31746;SDS011;18319;48.974;8.462;2023-08-20T04:05:59;7.60;;;7.00;;
31746;SDS011;18319;48.974;8.462;2023-08-20T04:08:26;7.90;;;7.13;;
31746;SDS011;18319;48.974;8.462;2023-08-20T04:10:53;8.30;;;7.53;;
31746;SDS011;18319;48.974;8.462;2023-08-20T04:13:19;13.02;;;9.10;;
31746;SDS011;18319;48.974;8.462;2023-08-20T04:15:46;8.23;;;7.47;;
31746;SDS011;18319;48.974;8.462;2023-08-20T04:18:13;8.38;;;7.68;;
31746;SDS011;18319;48.974;8.462;2023-08-20T04:20:41;7.80;;;7.13;;
31746;SDS011;18319;48.974;8.462;2023-08-20T04:23:08;7.07;;;6.47;;
31746;SDS011;18319;48.974;8.462;2023-08-20T04:25:35;9.68;;;6.72;;
31746;SDS011;18319;48.974;8.462;2023-08-20T04:28:01;6.85;;;6.32;;
31746;SDS011;18319;48.974;8.462;2023-08-20T04:30:28;14.45;;;8.95;;
31746;SDS011;18319;48.974;8.462;2023-08-20T04:32:55;7.50;;;6.90;;
31746;SDS011;18319;48.974;8.462;2023-08-20T04:35:22;7.13;;;6.57;;
31746;SDS011;18319;48.974;8.462;2023-08-20T04:37:50;6.45;;;5.90;;
31746;SDS011;18319;48.974;8.462;2023-08-20T04:40:17;7.53;;;6.75;;
31746;SDS011;18319;48.974;8.462;2023-08-20T04:42:44;8.32;;;6.78;;
31746;SDS011;18319;48.974;8.462;2023-08-20T04:45:10;6.82;;;6.32;;
31746;SDS011;18319;48.974;8.462;2023-08-20T04:47:37;7.93;;;7.25;;
31746;SDS011;18319;48.974;8.462;2023-08-20T04:50:04;7.05;;;6.50;;
31746;SDS011;18319;48.974;8.462;2023-08-20T04:52:32;7.85;;;7.03;;
31746;SDS011;18319;48.974;8.462;2023-08-20T04:55:01;7.90;;;7.25;;
31746;SDS011;18319;48.974;8.462;2023-08-20T04:57:28;7.97;;;7.18;;
31746;SDS011;18319;48.974;8.462;2023-08-20T04:59:55;8.43;;;7.18;;
31746;SDS011;18319;48.974;8.462;2023-08-20T05:02:21;8.43;;;7.32;;
31746;SDS011;18319;48.974;8.462;2023-08-20T05:04:48;8.00;;;7.35;;
31746;SDS011;18319;48.974;8.462;2023-08-20T05:07:15;7.68;;;6.97;;
31746;SDS011;18319;48.974;8.462;2023-08-20T05:09:42;7.85;;;7.07;;
31746;SDS011;18319;48.974;8.462;2023-08-20T05:12:10;8.65;;;7.85;;
31746;SDS011;18319;48.974;8.462;2023-08-20T05:14:37;7.55;;;6.85;;
31746;SDS011;18319;48.974;8.462;2023-08-20T05:17:04;8.13;;;7.38;;
31746;SDS011;18319;48.974;8.462;2023-08-20T05:19:30;7.43;;;6.82;;
31746;SDS011;18319;48.974;8.462;2023-08-20T05:21:57;7.50;;;6.78;;
31746;SDS011;18319;48.974;8.462;2023-08-20T05:24:24;7.43;;;6.82;;
31746;SDS011;18319;48.974;8.462;2023-08-20T05:27:03;10.35;;;6.35;;
31746;SDS011;18319;48.974;8.462;2023-08-20T05:29:33;7.45;;;6.63;;
31746;SDS011;18319;48.974;8.462;2023-08-20T05:31:59;7.55;;;6.63;;
31746;SDS011;18319;48.974;8.462;2023-08-20T05:34:26;7.85;;;7.25;;
31746;SDS011;18319;48.974;8.462;2023-08-20T05:36:53;7.82;;;7.10;;
31746;SDS011;18319;48.974;8.462;2023-08-20T05:39:20;7.50;;;6.55;;
31746;SDS011;18319;48.974;8.462;2023-08-20T05:41:48;7.63;;;6.05;;
31746;SDS011;18319;48.974;8.462;2023-08-20T05:44:16;8.82;;;6.85;;
31746;SDS011;18319;48.974;8.462;2023-08-20T05:46:44;8.32;;;6.30;;
31746;SDS011;18319;48.974;8.462;2023-08-20T05:49:11;9.02;;;6.72;;
31746;SDS011;18319;48.974;8.462;2023-08-20T05:51:38;6.70;;;6.03;;
31746;SDS011;18319;48.974;8.462;2023-08-20T05:54:05;8.48;;;7.05;;
31746;SDS011;18319;48.974;8.462;2023-08-20T05:56:32;6.80;;;6.20;;
31746;SDS011;18319;48.974;8.462;2023-08-20T05:58:58;6.30;;;5.80;;
31746;SDS011;18319;48.974;8.462;2023-08-20T06:01:25;7.68;;;6.88;;
31746;SDS011;18319;48.974;8.462;2023-08-20T06:03:53;6.60;;;6.20;;
31746;SDS011;18319;48.974;8.462;2023-08-20T06:06:20;8.88;;;6.72;;
31746;SDS011;18319;48.974;8.462;2023-08-20T06:08:47;6.50;;;6.00;;
31746;SDS011;18319;48.974;8.462;2023-08-20T06:11:14;6.63;;;5.95;;
31746;SDS011;18319;48.974;8.462;2023-08-20T06:13:40;6.97;;;6.47;;
31746;SDS011;18319;48.974;8.462;2023-08-20T06:16:07;7.18;;;6.57;;
31746;SDS011;18319;48.974;8.462;2023-08-20T06:18:34;6.90;;;6.40;;
31746;SDS011;18319;48.974;8.462;2023-08-20T06:21:03;7.15;;;6.50;;
31746;SDS011;18319;48.974;8.462;2023-08-20T06:23:30;7.03;;;6.43;;
31746;SDS011;18319;48.974;8.462;2023-08-20T06:25:56;6.72;;;6.22;;
31746;SDS011;18319;48.974;8.462;2023-08-20T06:28:23;7.38;;;6.88;;
31746;SDS011;18319;48.974;8.462;2023-08-20T06:30:52;7.45;;;6.80;;
31746;SDS011;18319;48.974;8.462;2023-08-20T06:33:19;7.60;;;6.85;;
31746;SDS011;18319;48.974;8.462;2023-08-20T06:35:46;6.47;;;5.97;;
31746;SDS011;18319;48.974;8.462;2023-08-20T06:38:14;7.00;;;6.15;;
31746;SDS011;18319;48.974;8.462;2023-08-20T06:40:40;8.38;;;6.18;;
31746;SDS011;18319;48.974;8.462;2023-08-20T06:43:07;7.47;;;6.78;;
31746;SDS011;18319;48.974;8.462;2023-08-20T06:45:34;7.65;;;6.85;;
31746;SDS011;18319;48.974;8.462;2023-08-20T06:48:00;7.63;;;6.93;;
31746;SDS011;18319;48.974;8.462;2023-08-20T06:50:27;7.43;;;6.88;;
31746;SDS011;18319;48.974;8.462;2023-08-20T06:52:54;7.55;;;6.88;;
31746;SDS011;18319;48.974;8.462;2023-08-20T06:55:22;9.30;;;7.88;;
31746;SDS011;18319;48.974;8.462;2023-08-20T06:57:49;8.45;;;6.75;;
31746;SDS011;18319;48.974;8.462;2023-08-20T07:00:15;7.93;;;7.28;;
31746;SDS011;18319;48.974;8.462;2023-08-20T07:02:44;8.32;;;7.43;;
31746;SDS011;18319;48.974;8.462;2023-08-20T07:05:10;8.73;;;7.93;;
31746;SDS011;18319;48.974;8.462;2023-08-20T07:07:38;8.30;;;7.70;;
31746;SDS011;18319;48.974;8.462;2023-08-20T07:10:05;9.30;;;8.45;;
31746;SDS011;18319;48.974;8.462;2023-08-20T07:12:34;8.80;;;8.00;;
31746;SDS011;18319;48.974;8.462;2023-08-20T07:15:01;7.22;;;6.72;;
31746;SDS011;18319;48.974;8.462;2023-08-20T07:17:28;9.55;;;7.28;;
31746;SDS011;18319;48.974;8.462;2023-08-20T07:19:55;8.70;;;6.60;;
31746;SDS011;18319;48.974;8.462;2023-08-20T07:22:22;7.80;;;7.20;;
31746;SDS011;18319;48.974;8.462;2023-08-20T07:24:49;9.85;;;7.32;;
31746;SDS011;18319;48.974;8.462;2023-08-20T07:27:15;8.55;;;7.70;;
31746;SDS011;18319;48.974;8.462;2023-08-20T07:29:43;6.97;;;6.30;;
31746;SDS011;18319;48.974;8.462;2023-08-20T07:32:10;8.75;;;7.00;;
31746;SDS011;18319;48.974;8.462;2023-08-20T07:34:37;7.50;;;6.82;;
31746;SDS011;18319;48.974;8.462;2023-08-20T07:37:04;7.22;;;6.53;;
31746;SDS011;18319;48.974;8.462;2023-08-20T07:39:31;6.82;;;6.05;;
31746;SDS011;18319;48.974;8.462;2023-08-20T07:41:58;7.53;;;6.82;;
31746;SDS011;18319;48.974;8.462;2023-08-20T07:44:25;7.18;;;6.47;;
31746;SDS011;18319;48.974;8.462;2023-08-20T07:46:54;7.22;;;6.55;;
31746;SDS011;18319;48.974;8.462;2023-08-20T07:49:21;7.75;;;6.32;;
31746;SDS011;18319;48.974;8.462;2023-08-20T07:51:48;7.30;;;6.60;;
31746;SDS011;18319;48.974;8.462;2023-08-20T07:54:17;7.60;;;6.85;;
31746;SDS011;18319;48.974;8.462;2023-08-20T07:56:44;6.55;;;5.97;;
31746;SDS011;18319;48.974;8.462;2023-08-20T07:59:11;7.15;;;6.45;;
31746;SDS011;18319;48.974;8.462;2023-08-20T08:01:37;7.88;;;6.10;;
31746;SDS011;18319;48.974;8.462;2023-08-20T08:04:05;6.78;;;6.18;;
31746;SDS011;18319;48.974;8.462;2023-08-20T08:06:32;8.35;;;7.65;;
31746;SDS011;18319;48.974;8.462;2023-08-20T08:09:14;7.15;;;6.40;;
31746;SDS011;18319;48.974;8.462;2023-08-20T08:11:44;9.52;;;7.57;;
31746;SDS011;18319;48.974;8.462;2023-08-20T08:14:10;6.72;;;6.22;;
31746;SDS011;18319;48.974;8.462;2023-08-20T08:16:37;7.20;;;6.55;;
31746;SDS011;18319;48.974;8.462;2023-08-20T08:19:05;7.47;;;6.07;;
31746;SDS011;18319;48.974;8.462;2023-08-20T08:21:32;7.00;;;6.38;;
31746;SDS011;18319;48.974;8.462;2023-08-20T08:23:59;6.57;;;6.07;;
31746;SDS011;18319;48.974;8.462;2023-08-20T08:26:26;6.75;;;6.20;;
31746;SDS011;18319;48.974;8.462;2023-08-20T08:28:53;7.22;;;6.60;;
31746;SDS011;18319;48.974;8.462;2023-08-20T08:31:19;7.53;;;6.80;;
31746;SDS011;18319;48.974;8.462;2023-08-20T08:33:46;7.07;;;6.32;;
31746;SDS011;18319;48.974;8.462;2023-08-20T08:36:14;7.60;;;6.50;;
31746;SDS011;18319;48.974;8.462;2023-08-20T08:38:41;6.35;;;5.97;;
31746;SDS011;18319;48.974;8.462;2023-08-20T08:41:09;7.22;;;6.53;;
31746;SDS011;18319;48.974;8.462;2023-08-20T08:43:37;6.90;;;6.30;;
31746;SDS011;18319;48.974;8.462;2023-08-20T08:46:04;6.45;;;6.05;;
31746;SDS011;18319;48.974;8.462;2023-08-20T08:48:33;7.40;;;6.05;;
31746;SDS011;18319;48.974;8.462;2023-08-20T08:51:01;6.60;;;6.10;;
31746;SDS011;18319;48.974;8.462;2023-08-20T08:53:29;6.85;;;6.25;;
31746;SDS011;18319;48.974;8.462;2023-08-20T08:55:58;7.95;;;6.80;;
31746;SDS011;18319;48.974;8.462;2023-08-20T08:58:25;8.13;;;5.82;;
31746;SDS011;18319;48.974;8.462;2023-08-20T09:00:52;6.70;;;6.20;;
31746;SDS011;18319;48.974;8.462;2023-08-20T09:03:19;7.13;;;6.50;;
31746;SDS011;18319;48.974;8.462;2023-08-20T09:05:46;6.70;;;6.20;;
31746;SDS011;18319;48.974;8.462;2023-08-20T09:08:20;6.90;;;5.97;;
31746;SDS011;18319;48.974;8.462;2023-08-20T09:10:51;6.25;;;5.85;;
31746;SDS011;18319;48.974;8.462;2023-08-20T09:13:18;6.45;;;5.95;;
31746;SDS011;18319;48.974;8.462;2023-08-20T09:15:50;6.80;;;5.97;;
31746;SDS011;18319;48.974;8.462;2023-08-20T09:18:18;5.85;;;5.28;;
31746;SDS011;18319;48.974;8.462;2023-08-20T09:20:44;6.82;;;6.30;;
31746;SDS011;18319;48.974;8.462;2023-08-20T09:23:14;6.72;;;6.22;;
31746;SDS011;18319;48.974;8.462;2023-08-20T09:25:40;7.65;;;6.70;;
31746;SDS011;18319;48.974;8.462;2023-08-20T09:28:09;6.03;;;5.45;;
31746;SDS011;18319;48.974;8.462;2023-08-20T09:30:36;6.25;;;5.72;;
31746;SDS011;18319;48.974;8.462;2023-08-20T09:33:06;7.35;;;6.63;;
31746;SDS011;18319;48.974;8.462;2023-08-20T09:35:34;7.43;;;6.85;;
31746;SDS011;18319;48.974;8.462;2023-08-20T09:38:01;7.57;;;6.95;;
31746;SDS011;18319;48.974;8.462;2023-08-20T09:40:29;7.60;;;6.63;;
31746;SDS011;18319;48.974;8.462;2023-08-20T09:42:57;9.43;;;6.70;;
31746;SDS011;18319;48.974;8.462;2023-08-20T09:45:25;6.65;;;6.15;;
31746;SDS011;18319;48.974;8.462;2023-08-20T09:47:55;6.60;;;6.15;;
31746;SDS011;18319;48.974;8.462;2023-08-20T09:50:24;7.70;;;6.75;;
31746;SDS011;18319;48.974;8.462;2023-08-20T09:52:55;6.65;;;5.88;;
31746;SDS011;18319;48.974;8.462;2023-08-20T09:55:27;6.90;;;6.18;;
31746;SDS011;18319;48.974;8.462;2023-08-20T09:57:58;6.75;;;6.18;;
31746;SDS011;18319;48.974;8.462;2023-08-20T10:00:28;6.78;;;6.18;;
31746;SDS011;18319;48.974;8.462;2023-08-20T10:02:56;5.75;;;5.45;;
31746;SDS011;18319;48.974;8.462;2023-08-20T10:05:24;6.97;;;6.40;;
31746;SDS011;18319;48.974;8.462;2023-08-20T10:07:52;7.00;;;6.32;;
31746;SDS011;18319;48.974;8.462;2023-08-20T10:10:20;6.18;;;5.28;;
31746;SDS011;18319;48.974;8.462;2023-08-20T10:12:47;6.68;;;6.13;;
31746;SDS011;18319;48.974;8.462;2023-08-20T10:15:14;6.28;;;5.88;;
31746;SDS011;18319;48.974;8.462;2023-08-20T10:17:43;5.75;;;5.25;;
31746;SDS011;18319;48.974;8.462;2023-08-20T10:20:12;6.85;;;6.15;;
31746;SDS011;18319;48.974;8.462;2023-08-20T10:22:40;5.45;;;5.15;;
31746;SDS011;18319;48.974;8.462;2023-08-20T10:25:09;7.50;;;6.18;;
31746;SDS011;18319;48.974;8.462;2023-08-20T10:27:37;7.25;;;5.13;;
31746;SDS011;18319;48.974;8.462;2023-08-20T10:30:08;6.07;;;5.32;;
31746;SDS011;18319;48.974;8.462;2023-08-20T10:32:45;6.63;;;6.03;;
31746;SDS011;18319;48.974;8.462;2023-08-20T10:35:14;8.43;;;5.28;;
31746;SDS011;18319;48.974;8.462;2023-08-20T10:40:46;7.18;;;6.10;;
31746;SDS011;18319;48.974;8.462;2023-08-20T10:43:23;5.68;;;5.22;;
31746;SDS011;18319;48.974;8.462;2023-08-20T10:46:13;6.68;;;6.03;;
31746;SDS011;18319;48.974;8.462;2023-08-20T10:48:43;6.03;;;5.43;;
31746;SDS011;18319;48.974;8.462;2023-08-20T10:51:14;5.90;;;5.50;;
31746;SDS011;18319;48.974;8.462;2023-08-20T10:53:43;5.97;;;5.32;;
31746;SDS011;18319;48.974;8.462;2023-08-20T10:56:15;6.30;;;5.70;;
31746;SDS011;18319;48.974;8.462;2023-08-20T10:58:43;6.97;;;6.38;;
31746;SDS011;18319;48.974;8.462;2023-08-20T11:01:20;6.07;;;5.60;;
31746;SDS011;18319;48.974;8.462;2023-08-20T11:03:49;6.82;;;6.20;;
31746;SDS011;18319;48.974;8.462;2023-08-20T11:06:17;6.78;;;6.22;;
31746;SDS011;18319;48.974;8.462;2023-08-20T11:08:44;6.93;;;6.28;;
31746;SDS011;18319;48.974;8.462;2023-08-20T11:11:12;5.95;;;5.55;;
31746;SDS011;18319;48.974;8.462;2023-08-20T11:13:39;6.25;;;5.65;;
31746;SDS011;18319;48.974;8.462;2023-08-20T11:16:07;6.57;;;6.13;;
31746;SDS011;18319;48.974;8.462;2023-08-20T11:18:35;6.43;;;5.85;;
31746;SDS011;18319;48.974;8.462;2023-08-20T11:21:03;5.60;;;5.20;;
31746;SDS011;18319;48.974;8.462;2023-08-20T11:23:31;6.95;;;5.43;;
31746;SDS011;18319;48.974;8.462;2023-08-20T11:25:58;6.43;;;5.53;;
31746;SDS011;18319;48.974;8.462;2023-08-20T11:28:25;6.35;;;5.88;;
31746;SDS011;18319;48.974;8.462;2023-08-20T11:30:53;6.05;;;5.60;;
31746;SDS011;18319;48.974;8.462;2023-08-20T11:33:21;5.90;;;5.50;;
31746;SDS011;18319;48.974;8.462;2023-08-20T11:38:17;5.82;;;5.50;;
31746;SDS011;18319;48.974;8.462;2023-08-20T11:40:43;5.97;;;5.43;;
31746;SDS011;18319;48.974;8.462;2023-08-20T11:43:10;5.78;;;5.47;;
31746;SDS011;18319;48.974;8.462;2023-08-20T11:45:44;5.85;;;5.43;;
31746;SDS011;18319;48.974;8.462;2023-08-20T11:48:12;6.00;;;5.55;;
31746;SDS011;18319;48.974;8.462;2023-08-20T11:50:39;5.53;;;5.03;;
31746;SDS011;18319;48.974;8.462;2023-08-20T11:53:06;6.13;;;5.13;;
31746;SDS011;18319;48.974;8.462;2023-08-20T11:55:35;6.32;;;5.82;;
31746;SDS011;18319;48.974;8.462;2023-08-20T11:58:01;6.63;;;5.50;;
31746;SDS011;18319;48.974;8.462;2023-08-20T12:00:30;5.47;;;5.07;;
31746;SDS011;18319;48.974;8.462;2023-08-20T12:02:57;5.25;;;4.85;;
31746;SDS011;18319;48.974;8.462;2023-08-20T12:05:26;5.30;;;4.97;;
31746;SDS011;18319;48.974;8.462;2023-08-20T12:07:56;5.68;;;5.28;;
31746;SDS011;18319;48.974;8.462;2023-08-20T12:10:24;7.15;;;5.28;;
31746;SDS011;18319;48.974;8.462;2023-08-20T12:12:53;5.30;;;4.80;;
31746;SDS011;18319;48.974;8.462;2023-08-20T12:15:20;5.18;;;4.78;;
31746;SDS011;18319;48.974;8.462;2023-08-20T12:17:57;5.75;;;5.28;;
31746;SDS011;18319;48.974;8.462;2023-08-20T12:20:26;6.47;;;5.45;;
31746;SDS011;18319;48.974;8.462;2023-08-20T12:22:54;5.40;;;4.97;;
31746;SDS011;18319;48.974;8.462;2023-08-20T12:25:22;5.90;;;5.40;;
31746;SDS011;18319;48.974;8.462;2023-08-20T12:27:49;6.15;;;5.53;;
31746;SDS011;18319;48.974;8.462;2023-08-20T12:30:18;4.95;;;4.55;;
31746;SDS011;18319;48.974;8.462;2023-08-20T12:32:45;4.70;;;4.40;;
31746;SDS011;18319;48.974;8.462;2023-08-20T12:35:12;5.20;;;4.82;;
31746;SDS011;18319;48.974;8.462;2023-08-20T12:37:40;5.10;;;4.70;;
31746;SDS011;18319;48.974;8.462;2023-08-20T12:40:07;5.47;;;5.07;;
31746;SDS011;18319;48.974;8.462;2023-08-20T12:42:36;6.95;;;4.25;;
31746;SDS011;18319;48.974;8.462;2023-08-20T12:45:03;5.72;;;4.78;;
31746;SDS011;18319;48.974;8.462;2023-08-20T12:47:32;5.45;;;4.43;;
31746;SDS011;18319;48.974;8.462;2023-08-20T12:49:59;5.90;;;4.90;;
31746;SDS011;18319;48.974;8.462;2023-08-20T12:52:26;4.68;;;4.38;;
31746;SDS011;18319;48.974;8.462;2023-08-20T12:54:53;5.70;;;4.60;;
31746;SDS011;18319;48.974;8.462;2023-08-20T12:57:19;5.05;;;4.75;;
31746;SDS011;18319;48.974;8.462;2023-08-20T12:59:46;5.70;;;5.30;;
31746;SDS011;18319;48.974;8.462;2023-08-20T13:02:13;5.32;;;4.82;;
31746;SDS011;18319;48.974;8.462;2023-08-20T13:04:42;5.45;;;5.05;;
31746;SDS011;18319;48.974;8.462;2023-08-20T13:07:09;10.70;;;5.03;;
31746;SDS011;18319;48.974;8.462;2023-08-20T13:09:36;5.32;;;4.88;;
31746;SDS011;18319;48.974;8.462;2023-08-20T13:12:04;5.95;;;5.30;;
31746;SDS011;18319;48.974;8.462;2023-08-20T13:14:35;4.30;;;4.10;;
31746;SDS011;18319;48.974;8.462;2023-08-20T13:17:03;5.47;;;4.85;;
31746;SDS011;18319;48.974;8.462;2023-08-20T13:19:30;5.82;;;5.40;;
31746;SDS011;18319;48.974;8.462;2023-08-20T13:21:58;4.85;;;4.55;;
31746;SDS011;18319;48.974;8.462;2023-08-20T13:24:25;4.78;;;4.43;;
31746;SDS011;18319;48.974;8.462;2023-08-20T13:26:51;5.78;;;5.18;;
31746;SDS011;18319;48.974;8.462;2023-08-20T13:29:18;5.35;;;4.85;;
31746;SDS011;18319;48.974;8.462;2023-08-20T13:31:45;4.80;;;4.30;;
31746;SDS011;18319;48.974;8.462;2023-08-20T13:34:12;4.22;;;3.83;;
31746;SDS011;18319;48.974;8.462;2023-08-20T13:36:38;4.82;;;4.40;;
31746;SDS011;18319;48.974;8.462;2023-08-20T13:39:07;7.70;;;4.63;;
31746;SDS011;18319;48.974;8.462;2023-08-20T13:41:34;5.20;;;4.70;;
31746;SDS011;18319;48.974;8.462;2023-08-20T13:44:00;4.75;;;4.38;;
31746;SDS011;18319;48.974;8.462;2023-08-20T13:46:27;4.63;;;4.30;;
31746;SDS011;18319;48.974;8.462;2023-08-20T13:48:54;4.57;;;4.28;;
31746;SDS011;18319;48.974;8.462;2023-08-20T13:51:21;5.15;;;4.40;;
31746;SDS011;18319;48.974;8.462;2023-08-20T13:53:47;4.93;;;4.47;;
31746;SDS011;18319;48.974;8.462;2023-08-20T13:56:16;5.25;;;4.65;;
31746;SDS011;18319;48.974;8.462;2023-08-20T13:58:42;4.55;;;4.20;;
31746;SDS011;18319;48.974;8.462;2023-08-20T14:01:09;4.85;;;4.47;;
31746;SDS011;18319;48.974;8.462;2023-08-20T14:03:36;5.80;;;3.83;;
31746;SDS011;18319;48.974;8.462;2023-08-20T14:06:03;4.57;;;4.35;;
31746;SDS011;18319;48.974;8.462;2023-08-20T14:08:30;4.82;;;4.25;;
31746;SDS011;18319;48.974;8.462;2023-08-20T14:10:57;4.65;;;4.32;;
31746;SDS011;18319;48.974;8.462;2023-08-20T14:13:25;5.75;;;5.10;;
31746;SDS011;18319;48.974;8.462;2023-08-20T14:15:52;5.32;;;4.00;;
31746;SDS011;18319;48.974;8.462;2023-08-20T14:18:18;4.18;;;3.83;;
31746;SDS011;18319;48.974;8.462;2023-08-20T14:20:46;7.68;;;3.60;;
31746;SDS011;18319;48.974;8.462;2023-08-20T14:23:12;4.47;;;4.07;;
31746;SDS011;18319;48.974;8.462;2023-08-20T14:25:39;4.78;;;4.45;;
31746;SDS011;18319;48.974;8.462;2023-08-20T14:28:07;3.88;;;3.58;;
31746;SDS011;18319;48.974;8.462;2023-08-20T14:30:37;4.13;;;3.83;;
31746;SDS011;18319;48.974;8.462;2023-08-20T14:33:04;4.68;;;3.85;;
31746;SDS011;18319;48.974;8.462;2023-08-20T14:35:31;4.50;;;4.25;;
31746;SDS011;18319;48.974;8.462;2023-08-20T14:37:59;4.20;;;3.88;;
31746;SDS011;18319;48.974;8.462;2023-08-20T14:40:25;4.57;;;4.28;;
31746;SDS011;18319;48.974;8.462;2023-08-20T14:42:52;4.45;;;4.05;;
31746;SDS011;18319;48.974;8.462;2023-08-20T14:45:19;3.85;;;3.60;;
31746;SDS011;18319;48.974;8.462;2023-08-20T14:47:47;4.63;;;3.50;;
31746;SDS011;18319;48.974;8.462;2023-08-20T14:50:14;4.25;;;3.45;;
31746;SDS011;18319;48.974;8.462;2023-08-20T14:52:40;3.83;;;3.47;;
31746;SDS011;18319;48.974;8.462;2023-08-20T14:55:07;4.32;;;4.03;;
31746;SDS011;18319;48.974;8.462;2023-08-20T14:57:34;4.97;;;4.68;;